sensor_id;sensor_type;location;lat;lon;timestamp;temperature;humidity
14049;DHT22;7099;53.922;10.728;2023-04-24T00:03:34;13.50;63.80
14049;DHT22;7099;53.922;10.728;2023-04-24T00:07:44;13.50;63.80
14049;DHT22;7099;53.922;10.728;2023-04-24T00:11:50;13.50;64.50
14049;DHT22;7099;53.922;10.728;2023-04-24T00:15:57;13.50;63.80
14049;DHT22;7099;53.922;10.728;2023-04-24T00:20:03;13.50;63.70
14049;DHT22;7099;53.922;10.728;2023-04-24T00:24:13;13.50;63.70
14049;DHT22;7099;53.922;10.728;2023-04-24T00:28:18;13.60;63.60
14049;DHT22;7099;53.922;10.728;2023-04-24T00:32:25;13.60;63.90
14049;DHT22;7099;53.922;10.728;2023-04-24T00:36:31;13.60;64.30
14049;DHT22;7099;53.922;10.728;2023-04-24T00:40:37;13.50;64.50
14049;DHT22;7099;53.922;10.728;2023-04-24T00:44:43;13.50;65.30
14049;DHT22;7099;53.922;10.728;2023-04-24T00:48:49;13.50;66.00
14049;DHT22;7099;53.922;10.728;2023-04-24T00:52:55;13.40;66.10
14049;DHT22;7099;53.922;10.728;2023-04-24T00:57:03;13.30;66.00
14049;DHT22;7099;53.922;10.728;2023-04-24T01:01:09;13.40;66.30
14049;DHT22;7099;53.922;10.728;2023-04-24T01:05:17;13.30;66.50
14049;DHT22;7099;53.922;10.728;2023-04-24T01:09:24;13.30;66.70
14049;DHT22;7099;53.922;10.728;2023-04-24T01:13:31;13.30;66.70
14049;DHT22;7099;53.922;10.728;2023-04-24T01:17:37;13.30;67.10
14049;DHT22;7099;53.922;10.728;2023-04-24T01:21:47;13.30;67.60
14049;DHT22;7099;53.922;10.728;2023-04-24T01:25:56;13.20;68.40
14049;DHT22;7099;53.922;10.728;2023-04-24T01:30:02;13.20;68.70
14049;DHT22;7099;53.922;10.728;2023-04-24T01:34:08;13.10;69.20
14049;DHT22;7099;53.922;10.728;2023-04-24T01:38:14;13.10;69.80
14049;DHT22;7099;53.922;10.728;2023-04-24T01:42:20;13.00;70.00
14049;DHT22;7099;53.922;10.728;2023-04-24T01:46:26;13.00;70.40
14049;DHT22;7099;53.922;10.728;2023-04-24T01:50:32;13.00;70.80
14049;DHT22;7099;53.922;10.728;2023-04-24T01:54:38;13.00;71.00
14049;DHT22;7099;53.922;10.728;2023-04-24T01:58:44;13.00;71.30
14049;DHT22;7099;53.922;10.728;2023-04-24T02:02:50;12.90;71.40
14049;DHT22;7099;53.922;10.728;2023-04-24T02:06:56;12.90;71.60
14049;DHT22;7099;53.922;10.728;2023-04-24T02:11:02;12.90;71.70
14049;DHT22;7099;53.922;10.728;2023-04-24T02:15:08;12.80;71.90
14049;DHT22;7099;53.922;10.728;2023-04-24T02:19:13;12.80;72.00
14049;DHT22;7099;53.922;10.728;2023-04-24T02:23:19;12.80;72.00
14049;DHT22;7099;53.922;10.728;2023-04-24T02:27:25;12.80;72.30
14049;DHT22;7099;53.922;10.728;2023-04-24T02:31:31;12.70;72.20
14049;DHT22;7099;53.922;10.728;2023-04-24T02:35:36;12.70;72.40
14049;DHT22;7099;53.922;10.728;2023-04-24T02:39:42;12.70;72.20
14049;DHT22;7099;53.922;10.728;2023-04-24T02:43:48;12.70;72.20
14049;DHT22;7099;53.922;10.728;2023-04-24T02:47:54;12.70;72.30
14049;DHT22;7099;53.922;10.728;2023-04-24T02:51:59;12.60;72.40
14049;DHT22;7099;53.922;10.728;2023-04-24T02:56:05;12.50;72.40
14049;DHT22;7099;53.922;10.728;2023-04-24T03:00:11;12.50;72.50
14049;DHT22;7099;53.922;10.728;2023-04-24T03:04:17;12.40;72.30
14049;DHT22;7099;53.922;10.728;2023-04-24T03:08:25;12.40;72.10
14049;DHT22;7099;53.922;10.728;2023-04-24T03:12:31;12.40;71.90
14049;DHT22;7099;53.922;10.728;2023-04-24T03:16:38;12.30;72.00
14049;DHT22;7099;53.922;10.728;2023-04-24T03:20:45;12.30;72.80
14049;DHT22;7099;53.922;10.728;2023-04-24T03:24:52;12.20;72.20
14049;DHT22;7099;53.922;10.728;2023-04-24T03:28:57;12.20;72.20
14049;DHT22;7099;53.922;10.728;2023-04-24T03:33:03;12.10;72.10
14049;DHT22;7099;53.922;10.728;2023-04-24T03:37:09;12.10;72.40
14049;DHT22;7099;53.922;10.728;2023-04-24T03:41:14;12.00;72.30
14049;DHT22;7099;53.922;10.728;2023-04-24T03:45:21;12.00;72.30
14049;DHT22;7099;53.922;10.728;2023-04-24T03:49:26;11.90;72.30
14049;DHT22;7099;53.922;10.728;2023-04-24T03:53:32;11.90;72.30
14049;DHT22;7099;53.922;10.728;2023-04-24T03:57:39;11.80;72.40
14049;DHT22;7099;53.922;10.728;2023-04-24T04:01:45;11.80;72.50
14049;DHT22;7099;53.922;10.728;2023-04-24T04:05:51;11.70;72.20
14049;DHT22;7099;53.922;10.728;2023-04-24T04:09:59;11.70;72.40
14049;DHT22;7099;53.922;10.728;2023-04-24T04:14:05;11.60;72.10
14049;DHT22;7099;53.922;10.728;2023-04-24T04:18:11;11.60;72.20
14049;DHT22;7099;53.922;10.728;2023-04-24T04:22:16;11.60;72.30
14049;DHT22;7099;53.922;10.728;2023-04-24T04:26:22;11.50;72.00
14049;DHT22;7099;53.922;10.728;2023-04-24T04:30:30;11.50;72.00
14049;DHT22;7099;53.922;10.728;2023-04-24T04:34:37;11.40;72.00
14049;DHT22;7099;53.922;10.728;2023-04-24T04:38:43;11.40;72.00
14049;DHT22;7099;53.922;10.728;2023-04-24T04:42:49;11.40;72.00
14049;DHT22;7099;53.922;10.728;2023-04-24T04:46:58;11.40;71.90
14049;DHT22;7099;53.922;10.728;2023-04-24T04:51:05;11.40;71.90
14049;DHT22;7099;53.922;10.728;2023-04-24T04:55:11;11.40;71.90
14049;DHT22;7099;53.922;10.728;2023-04-24T04:59:18;11.30;71.80
14049;DHT22;7099;53.922;10.728;2023-04-24T05:03:24;11.30;71.90
14049;DHT22;7099;53.922;10.728;2023-04-24T05:07:30;11.30;71.90
14049;DHT22;7099;53.922;10.728;2023-04-24T05:11:35;11.30;72.00
14049;DHT22;7099;53.922;10.728;2023-04-24T05:15:41;11.40;72.10
14049;DHT22;7099;53.922;10.728;2023-04-24T05:19:47;11.40;72.00
14049;DHT22;7099;53.922;10.728;2023-04-24T05:23:53;11.40;72.20
14049;DHT22;7099;53.922;10.728;2023-04-24T05:27:58;11.40;72.20
14049;DHT22;7099;53.922;10.728;2023-04-24T05:32:04;11.50;72.10
14049;DHT22;7099;53.922;10.728;2023-04-24T05:36:10;11.50;71.50
14049;DHT22;7099;53.922;10.728;2023-04-24T05:40:15;11.60;71.20
14049;DHT22;7099;53.922;10.728;2023-04-24T05:44:21;11.70;70.60
14049;DHT22;7099;53.922;10.728;2023-04-24T05:48:26;11.80;70.30
14049;DHT22;7099;53.922;10.728;2023-04-24T05:52:32;11.90;70.20
14049;DHT22;7099;53.922;10.728;2023-04-24T05:56:38;12.00;69.60
14049;DHT22;7099;53.922;10.728;2023-04-24T06:00:47;12.10;69.20
14049;DHT22;7099;53.922;10.728;2023-04-24T06:04:53;12.10;68.70
14049;DHT22;7099;53.922;10.728;2023-04-24T06:08:59;12.10;68.30
14049;DHT22;7099;53.922;10.728;2023-04-24T06:13:04;12.20;68.40
14049;DHT22;7099;53.922;10.728;2023-04-24T06:17:16;12.30;68.00
14049;DHT22;7099;53.922;10.728;2023-04-24T06:21:22;12.50;67.70
14049;DHT22;7099;53.922;10.728;2023-04-24T06:25:28;12.60;66.90
14049;DHT22;7099;53.922;10.728;2023-04-24T06:29:35;12.70;66.60
14049;DHT22;7099;53.922;10.728;2023-04-24T06:33:41;12.90;66.20
14049;DHT22;7099;53.922;10.728;2023-04-24T06:37:47;13.00;65.40
14049;DHT22;7099;53.922;10.728;2023-04-24T06:41:52;13.10;65.10
14049;DHT22;7099;53.922;10.728;2023-04-24T06:45:59;13.30;65.20
14049;DHT22;7099;53.922;10.728;2023-04-24T06:50:05;13.40;64.40
14049;DHT22;7099;53.922;10.728;2023-04-24T06:54:11;13.60;64.30
14049;DHT22;7099;53.922;10.728;2023-04-24T06:58:17;13.70;63.80
14049;DHT22;7099;53.922;10.728;2023-04-24T07:02:23;13.80;62.80
14049;DHT22;7099;53.922;10.728;2023-04-24T07:06:29;13.90;62.20
14049;DHT22;7099;53.922;10.728;2023-04-24T07:10:35;14.10;61.70
14049;DHT22;7099;53.922;10.728;2023-04-24T07:14:41;14.20;61.60
14049;DHT22;7099;53.922;10.728;2023-04-24T07:18:46;14.30;60.60
14049;DHT22;7099;53.922;10.728;2023-04-24T07:22:52;14.40;60.70
14049;DHT22;7099;53.922;10.728;2023-04-24T07:27:00;14.50;60.60
14049;DHT22;7099;53.922;10.728;2023-04-24T07:31:08;14.70;60.10
14049;DHT22;7099;53.922;10.728;2023-04-24T07:35:16;14.80;60.00
14049;DHT22;7099;53.922;10.728;2023-04-24T07:39:21;14.90;58.80
14049;DHT22;7099;53.922;10.728;2023-04-24T07:43:27;15.00;59.30
14049;DHT22;7099;53.922;10.728;2023-04-24T07:47:33;15.10;58.90
14049;DHT22;7099;53.922;10.728;2023-04-24T07:51:40;15.20;59.00
14049;DHT22;7099;53.922;10.728;2023-04-24T07:55:47;15.30;57.60
14049;DHT22;7099;53.922;10.728;2023-04-24T07:59:53;15.40;57.00
14049;DHT22;7099;53.922;10.728;2023-04-24T08:03:58;15.40;57.20
14049;DHT22;7099;53.922;10.728;2023-04-24T08:08:04;15.60;57.40
14049;DHT22;7099;53.922;10.728;2023-04-24T08:12:10;15.70;56.30
14049;DHT22;7099;53.922;10.728;2023-04-24T08:16:16;15.70;56.30
14049;DHT22;7099;53.922;10.728;2023-04-24T08:20:22;15.70;56.60
14049;DHT22;7099;53.922;10.728;2023-04-24T08:24:27;15.70;55.60
14049;DHT22;7099;53.922;10.728;2023-04-24T08:28:33;15.70;56.00
14049;DHT22;7099;53.922;10.728;2023-04-24T08:32:38;15.80;56.40
14049;DHT22;7099;53.922;10.728;2023-04-24T08:36:44;15.80;55.80
14049;DHT22;7099;53.922;10.728;2023-04-24T08:40:52;15.70;55.40
14049;DHT22;7099;53.922;10.728;2023-04-24T08:44:58;15.70;55.20
14049;DHT22;7099;53.922;10.728;2023-04-24T08:49:04;15.70;55.60
14049;DHT22;7099;53.922;10.728;2023-04-24T08:53:11;16.00;56.00
14049;DHT22;7099;53.922;10.728;2023-04-24T08:57:18;16.40;55.90
14049;DHT22;7099;53.922;10.728;2023-04-24T09:01:25;16.50;54.50
14049;DHT22;7099;53.922;10.728;2023-04-24T09:05:32;16.50;53.90
14049;DHT22;7099;53.922;10.728;2023-04-24T09:09:39;16.40;52.50
14049;DHT22;7099;53.922;10.728;2023-04-24T09:13:46;16.30;53.00
14049;DHT22;7099;53.922;10.728;2023-04-24T09:17:53;16.30;53.30
14049;DHT22;7099;53.922;10.728;2023-04-24T09:21:59;16.30;53.40
14049;DHT22;7099;53.922;10.728;2023-04-24T09:26:05;16.30;53.40
14049;DHT22;7099;53.922;10.728;2023-04-24T09:30:11;16.30;53.20
14049;DHT22;7099;53.922;10.728;2023-04-24T09:34:22;16.30;53.10
14049;DHT22;7099;53.922;10.728;2023-04-24T09:38:36;16.40;53.50
14049;DHT22;7099;53.922;10.728;2023-04-24T09:43:00;16.50;52.10
14049;DHT22;7099;53.922;10.728;2023-04-24T09:47:08;16.50;51.50
14049;DHT22;7099;53.922;10.728;2023-04-24T09:51:15;16.50;52.40
14049;DHT22;7099;53.922;10.728;2023-04-24T09:55:21;16.50;52.10
14049;DHT22;7099;53.922;10.728;2023-04-24T09:59:27;16.70;52.30
14049;DHT22;7099;53.922;10.728;2023-04-24T10:03:33;16.80;51.90
14049;DHT22;7099;53.922;10.728;2023-04-24T10:07:39;16.90;51.60
14049;DHT22;7099;53.922;10.728;2023-04-24T10:11:47;16.90;51.90
14049;DHT22;7099;53.922;10.728;2023-04-24T10:15:56;16.90;51.50
14049;DHT22;7099;53.922;10.728;2023-04-24T10:20:03;16.90;51.30
14049;DHT22;7099;53.922;10.728;2023-04-24T10:24:15;17.00;52.20
14049;DHT22;7099;53.922;10.728;2023-04-24T10:28:22;17.30;52.70
14049;DHT22;7099;53.922;10.728;2023-04-24T10:32:29;17.40;50.70
14049;DHT22;7099;53.922;10.728;2023-04-24T10:36:38;17.30;49.70
14049;DHT22;7099;53.922;10.728;2023-04-24T10:40:47;17.40;50.50
14049;DHT22;7099;53.922;10.728;2023-04-24T10:44:52;17.50;49.90
14049;DHT22;7099;53.922;10.728;2023-04-24T10:49:04;17.40;49.30
14049;DHT22;7099;53.922;10.728;2023-04-24T10:53:17;17.40;50.40
14049;DHT22;7099;53.922;10.728;2023-04-24T10:57:28;17.50;50.80
14049;DHT22;7099;53.922;10.728;2023-04-24T11:01:38;17.60;50.40
14049;DHT22;7099;53.922;10.728;2023-04-24T11:09:58;17.60;49.50
14049;DHT22;7099;53.922;10.728;2023-04-24T11:14:07;17.80;50.00
14049;DHT22;7099;53.922;10.728;2023-04-24T11:18:14;18.00;48.60
14049;DHT22;7099;53.922;10.728;2023-04-24T11:22:23;18.10;48.60
14049;DHT22;7099;53.922;10.728;2023-04-24T11:26:29;18.10;47.80
14049;DHT22;7099;53.922;10.728;2023-04-24T11:30:40;18.20;48.30
14049;DHT22;7099;53.922;10.728;2023-04-24T11:34:46;18.50;48.70
14049;DHT22;7099;53.922;10.728;2023-04-24T11:38:53;18.60;48.90
14049;DHT22;7099;53.922;10.728;2023-04-24T11:43:00;18.80;47.70
14049;DHT22;7099;53.922;10.728;2023-04-24T11:47:06;18.70;47.60
14049;DHT22;7099;53.922;10.728;2023-04-24T11:51:14;18.90;49.10
14049;DHT22;7099;53.922;10.728;2023-04-24T11:59:26;18.90;47.20
14049;DHT22;7099;53.922;10.728;2023-04-24T12:03:32;19.00;47.70
14049;DHT22;7099;53.922;10.728;2023-04-24T12:07:41;19.00;47.70
14049;DHT22;7099;53.922;10.728;2023-04-24T12:11:54;19.00;46.60
14049;DHT22;7099;53.922;10.728;2023-04-24T12:16:05;19.00;47.60
14049;DHT22;7099;53.922;10.728;2023-04-24T12:20:11;19.00;46.30
14049;DHT22;7099;53.922;10.728;2023-04-24T12:24:18;19.00;47.70
14049;DHT22;7099;53.922;10.728;2023-04-24T12:28:23;19.10;46.60
14049;DHT22;7099;53.922;10.728;2023-04-24T12:32:29;19.00;47.00
14049;DHT22;7099;53.922;10.728;2023-04-24T12:36:35;19.10;46.90
14049;DHT22;7099;53.922;10.728;2023-04-24T12:40:42;19.20;47.10
14049;DHT22;7099;53.922;10.728;2023-04-24T12:44:48;19.30;46.30
14049;DHT22;7099;53.922;10.728;2023-04-24T12:48:53;19.20;46.60
14049;DHT22;7099;53.922;10.728;2023-04-24T12:52:59;19.20;45.90
14049;DHT22;7099;53.922;10.728;2023-04-24T12:57:04;19.10;47.00
14049;DHT22;7099;53.922;10.728;2023-04-24T13:01:10;19.10;46.30
14049;DHT22;7099;53.922;10.728;2023-04-24T13:05:16;18.90;45.60
14049;DHT22;7099;53.922;10.728;2023-04-24T13:09:22;18.70;45.60
14049;DHT22;7099;53.922;10.728;2023-04-24T13:13:28;18.60;46.30
14049;DHT22;7099;53.922;10.728;2023-04-24T13:17:34;18.60;45.90
14049;DHT22;7099;53.922;10.728;2023-04-24T13:21:40;18.50;45.90
14049;DHT22;7099;53.922;10.728;2023-04-24T13:25:45;18.60;46.30
14049;DHT22;7099;53.922;10.728;2023-04-24T13:29:52;18.70;45.80
14049;DHT22;7099;53.922;10.728;2023-04-24T13:33:57;18.70;45.50
14049;DHT22;7099;53.922;10.728;2023-04-24T13:38:03;18.60;45.40
14049;DHT22;7099;53.922;10.728;2023-04-24T13:42:11;18.50;46.10
14049;DHT22;7099;53.922;10.728;2023-04-24T13:46:16;18.40;46.70
14049;DHT22;7099;53.922;10.728;2023-04-24T13:50:22;18.40;46.40
14049;DHT22;7099;53.922;10.728;2023-04-24T13:54:28;18.20;46.40
14049;DHT22;7099;53.922;10.728;2023-04-24T13:58:33;18.00;46.80
14049;DHT22;7099;53.922;10.728;2023-04-24T14:02:39;17.80;47.10
14049;DHT22;7099;53.922;10.728;2023-04-24T14:06:45;17.80;47.50
14049;DHT22;7099;53.922;10.728;2023-04-24T14:10:50;17.70;47.10
14049;DHT22;7099;53.922;10.728;2023-04-24T14:14:56;17.60;47.60
14049;DHT22;7099;53.922;10.728;2023-04-24T14:19:01;17.50;47.40
14049;DHT22;7099;53.922;10.728;2023-04-24T14:23:07;17.40;47.80
14049;DHT22;7099;53.922;10.728;2023-04-24T14:27:13;17.00;47.70
14049;DHT22;7099;53.922;10.728;2023-04-24T14:31:18;16.80;47.60
14049;DHT22;7099;53.922;10.728;2023-04-24T14:35:24;16.60;48.10
14049;DHT22;7099;53.922;10.728;2023-04-24T14:39:29;16.60;49.10
14049;DHT22;7099;53.922;10.728;2023-04-24T14:43:36;16.50;50.20
14049;DHT22;7099;53.922;10.728;2023-04-24T14:47:41;16.50;51.00
14049;DHT22;7099;53.922;10.728;2023-04-24T14:51:47;16.60;51.10
14049;DHT22;7099;53.922;10.728;2023-04-24T14:55:53;16.70;50.80
14049;DHT22;7099;53.922;10.728;2023-04-24T15:00:00;16.70;50.70
14049;DHT22;7099;53.922;10.728;2023-04-24T15:04:05;16.70;50.70
14049;DHT22;7099;53.922;10.728;2023-04-24T15:08:11;16.60;51.40
14049;DHT22;7099;53.922;10.728;2023-04-24T15:12:17;16.50;51.00
14049;DHT22;7099;53.922;10.728;2023-04-24T15:16:23;16.40;50.30
14049;DHT22;7099;53.922;10.728;2023-04-24T15:20:29;16.20;50.30
14049;DHT22;7099;53.922;10.728;2023-04-24T15:24:35;16.00;50.80
14049;DHT22;7099;53.922;10.728;2023-04-24T15:28:41;15.80;51.10
14049;DHT22;7099;53.922;10.728;2023-04-24T15:32:46;15.80;51.80
14049;DHT22;7099;53.922;10.728;2023-04-24T15:36:52;15.80;51.90
14049;DHT22;7099;53.922;10.728;2023-04-24T15:40:57;15.60;51.80
14049;DHT22;7099;53.922;10.728;2023-04-24T15:45:03;15.50;52.30
14049;DHT22;7099;53.922;10.728;2023-04-24T15:49:09;15.50;52.50
14049;DHT22;7099;53.922;10.728;2023-04-24T15:53:15;15.30;52.30
14049;DHT22;7099;53.922;10.728;2023-04-24T15:57:26;15.20;52.30
14049;DHT22;7099;53.922;10.728;2023-04-24T16:01:32;15.20;52.70
14049;DHT22;7099;53.922;10.728;2023-04-24T16:05:38;15.10;52.90
14049;DHT22;7099;53.922;10.728;2023-04-24T16:09:44;15.00;53.00
14049;DHT22;7099;53.922;10.728;2023-04-24T16:13:50;14.60;54.30
14049;DHT22;7099;53.922;10.728;2023-04-24T16:17:56;14.30;55.10
14049;DHT22;7099;53.922;10.728;2023-04-24T16:22:04;14.10;55.90
14049;DHT22;7099;53.922;10.728;2023-04-24T16:26:09;13.80;57.30
14049;DHT22;7099;53.922;10.728;2023-04-24T16:30:15;13.70;58.60
14049;DHT22;7099;53.922;10.728;2023-04-24T16:34:21;13.50;59.70
14049;DHT22;7099;53.922;10.728;2023-04-24T16:38:28;13.30;60.70
14049;DHT22;7099;53.922;10.728;2023-04-24T16:42:33;13.10;61.80
14049;DHT22;7099;53.922;10.728;2023-04-24T16:46:39;13.00;62.00
14049;DHT22;7099;53.922;10.728;2023-04-24T16:50:44;12.90;62.50
14049;DHT22;7099;53.922;10.728;2023-04-24T16:54:50;12.70;63.00
14049;DHT22;7099;53.922;10.728;2023-04-24T16:58:56;12.50;63.30
14049;DHT22;7099;53.922;10.728;2023-04-24T17:03:02;12.20;63.90
14049;DHT22;7099;53.922;10.728;2023-04-24T17:07:08;12.10;64.00
14049;DHT22;7099;53.922;10.728;2023-04-24T17:11:13;12.10;64.50
14049;DHT22;7099;53.922;10.728;2023-04-24T17:15:19;12.00;64.50
14049;DHT22;7099;53.922;10.728;2023-04-24T17:19:25;11.80;64.70
14049;DHT22;7099;53.922;10.728;2023-04-24T17:23:30;11.70;64.90
14049;DHT22;7099;53.922;10.728;2023-04-24T17:27:36;11.60;64.50
14049;DHT22;7099;53.922;10.728;2023-04-24T17:31:42;11.50;64.00
14049;DHT22;7099;53.922;10.728;2023-04-24T17:35:47;11.40;63.80
14049;DHT22;7099;53.922;10.728;2023-04-24T17:39:54;11.20;64.50
14049;DHT22;7099;53.922;10.728;2023-04-24T17:44:00;11.10;64.20
14049;DHT22;7099;53.922;10.728;2023-04-24T17:48:06;11.00;64.20
14049;DHT22;7099;53.922;10.728;2023-04-24T17:52:11;10.90;64.50
14049;DHT22;7099;53.922;10.728;2023-04-24T17:56:18;10.80;64.70
14049;DHT22;7099;53.922;10.728;2023-04-24T18:00:24;10.60;64.80
14049;DHT22;7099;53.922;10.728;2023-04-24T18:04:30;10.50;64.70
14049;DHT22;7099;53.922;10.728;2023-04-24T18:08:36;10.40;64.20
14049;DHT22;7099;53.922;10.728;2023-04-24T18:12:41;10.30;63.90
14049;DHT22;7099;53.922;10.728;2023-04-24T18:16:47;10.20;64.50
14049;DHT22;7099;53.922;10.728;2023-04-24T18:20:52;10.20;64.60
14049;DHT22;7099;53.922;10.728;2023-04-24T18:24:59;10.20;64.80
14049;DHT22;7099;53.922;10.728;2023-04-24T18:29:05;10.10;65.70
14049;DHT22;7099;53.922;10.728;2023-04-24T18:33:11;10.00;65.80
14049;DHT22;7099;53.922;10.728;2023-04-24T18:37:16;10.00;66.40
14049;DHT22;7099;53.922;10.728;2023-04-24T18:41:22;10.00;66.70
14049;DHT22;7099;53.922;10.728;2023-04-24T18:45:27;10.00;66.80
14049;DHT22;7099;53.922;10.728;2023-04-24T18:49:33;10.00;66.70
14049;DHT22;7099;53.922;10.728;2023-04-24T18:53:39;9.90;66.90
14049;DHT22;7099;53.922;10.728;2023-04-24T18:57:46;10.00;67.20
14049;DHT22;7099;53.922;10.728;2023-04-24T19:01:51;9.90;67.40
14049;DHT22;7099;53.922;10.728;2023-04-24T19:05:57;9.90;67.60
14049;DHT22;7099;53.922;10.728;2023-04-24T19:10:03;9.90;67.60
14049;DHT22;7099;53.922;10.728;2023-04-24T19:14:08;9.90;67.80
14049;DHT22;7099;53.922;10.728;2023-04-24T19:18:16;9.80;67.90
14049;DHT22;7099;53.922;10.728;2023-04-24T19:22:22;9.80;68.20
14049;DHT22;7099;53.922;10.728;2023-04-24T19:26:28;9.70;68.60
14049;DHT22;7099;53.922;10.728;2023-04-24T19:30:35;9.70;68.90
14049;DHT22;7099;53.922;10.728;2023-04-24T19:34:41;9.70;69.00
14049;DHT22;7099;53.922;10.728;2023-04-24T19:38:47;9.70;69.20
14049;DHT22;7099;53.922;10.728;2023-04-24T19:42:55;9.60;69.20
14049;DHT22;7099;53.922;10.728;2023-04-24T19:47:00;9.60;69.30
14049;DHT22;7099;53.922;10.728;2023-04-24T19:51:06;9.60;69.20
14049;DHT22;7099;53.922;10.728;2023-04-24T19:55:11;9.60;69.20
14049;DHT22;7099;53.922;10.728;2023-04-24T19:59:17;9.60;69.20
14049;DHT22;7099;53.922;10.728;2023-04-24T20:03:23;9.60;69.50
14049;DHT22;7099;53.922;10.728;2023-04-24T20:07:37;9.60;69.60
14049;DHT22;7099;53.922;10.728;2023-04-24T20:11:42;9.60;69.90
14049;DHT22;7099;53.922;10.728;2023-04-24T20:15:50;9.60;69.90
14049;DHT22;7099;53.922;10.728;2023-04-24T20:19:56;9.60;70.00
14049;DHT22;7099;53.922;10.728;2023-04-24T20:24:01;9.70;70.00
14049;DHT22;7099;53.922;10.728;2023-04-24T20:28:08;9.60;69.90
14049;DHT22;7099;53.922;10.728;2023-04-24T20:32:14;9.70;69.80
14049;DHT22;7099;53.922;10.728;2023-04-24T20:36:19;9.70;70.00
14049;DHT22;7099;53.922;10.728;2023-04-24T20:40:26;9.70;70.00
14049;DHT22;7099;53.922;10.728;2023-04-24T20:44:36;9.70;70.70
14049;DHT22;7099;53.922;10.728;2023-04-24T20:48:42;9.70;70.00
14049;DHT22;7099;53.922;10.728;2023-04-24T20:52:47;9.70;70.20
14049;DHT22;7099;53.922;10.728;2023-04-24T20:56:54;9.70;70.40
14049;DHT22;7099;53.922;10.728;2023-04-24T21:01:01;9.70;70.30
14049;DHT22;7099;53.922;10.728;2023-04-24T21:05:07;9.60;70.50
14049;DHT22;7099;53.922;10.728;2023-04-24T21:09:14;9.60;70.50
14049;DHT22;7099;53.922;10.728;2023-04-24T21:13:20;9.60;70.60
14049;DHT22;7099;53.922;10.728;2023-04-24T21:17:26;9.60;70.60
14049;DHT22;7099;53.922;10.728;2023-04-24T21:21:31;9.60;70.80
14049;DHT22;7099;53.922;10.728;2023-04-24T21:25:38;9.60;70.60
14049;DHT22;7099;53.922;10.728;2023-04-24T21:29:44;9.60;70.50
14049;DHT22;7099;53.922;10.728;2023-04-24T21:33:49;9.60;70.40
14049;DHT22;7099;53.922;10.728;2023-04-24T21:37:55;9.60;70.40
14049;DHT22;7099;53.922;10.728;2023-04-24T21:42:02;9.60;70.20
14049;DHT22;7099;53.922;10.728;2023-04-24T21:46:07;9.60;70.10
14049;DHT22;7099;53.922;10.728;2023-04-24T21:50:13;9.60;70.30
14049;DHT22;7099;53.922;10.728;2023-04-24T21:54:19;9.60;70.50
14049;DHT22;7099;53.922;10.728;2023-04-24T21:58:24;9.60;70.20
14049;DHT22;7099;53.922;10.728;2023-04-24T22:02:30;9.60;70.40
14049;DHT22;7099;53.922;10.728;2023-04-24T22:06:36;9.60;70.40
14049;DHT22;7099;53.922;10.728;2023-04-24T22:10:42;9.60;70.50
14049;DHT22;7099;53.922;10.728;2023-04-24T22:14:48;9.60;70.80
14049;DHT22;7099;53.922;10.728;2023-04-24T22:18:53;9.60;71.20
14049;DHT22;7099;53.922;10.728;2023-04-24T22:22:59;9.60;71.40
14049;DHT22;7099;53.922;10.728;2023-04-24T22:27:05;9.60;71.70
14049;DHT22;7099;53.922;10.728;2023-04-24T22:31:10;9.50;72.30
14049;DHT22;7099;53.922;10.728;2023-04-24T22:35:16;9.50;72.90
14049;DHT22;7099;53.922;10.728;2023-04-24T22:39:23;9.40;72.80
14049;DHT22;7099;53.922;10.728;2023-04-24T22:43:30;9.40;73.40
14049;DHT22;7099;53.922;10.728;2023-04-24T22:47:36;9.30;73.60
14049;DHT22;7099;53.922;10.728;2023-04-24T22:51:42;9.30;74.10
14049;DHT22;7099;53.922;10.728;2023-04-24T22:55:48;9.30;74.10
14049;DHT22;7099;53.922;10.728;2023-04-24T22:59:53;9.30;74.20
14049;DHT22;7099;53.922;10.728;2023-04-24T23:03:59;9.30;74.30
14049;DHT22;7099;53.922;10.728;2023-04-24T23:08:07;9.30;74.50
14049;DHT22;7099;53.922;10.728;2023-04-24T23:12:12;9.30;74.60
14049;DHT22;7099;53.922;10.728;2023-04-24T23:16:18;9.30;74.40
14049;DHT22;7099;53.922;10.728;2023-04-24T23:20:25;9.30;74.80
14049;DHT22;7099;53.922;10.728;2023-04-24T23:24:31;9.30;74.70
14049;DHT22;7099;53.922;10.728;2023-04-24T23:28:36;9.30;74.80
14049;DHT22;7099;53.922;10.728;2023-04-24T23:32:44;9.30;74.80
14049;DHT22;7099;53.922;10.728;2023-04-24T23:36:50;9.30;75.00
14049;DHT22;7099;53.922;10.728;2023-04-24T23:40:58;9.20;75.10
14049;DHT22;7099;53.922;10.728;2023-04-24T23:45:05;9.30;75.20
14049;DHT22;7099;53.922;10.728;2023-04-24T23:49:10;9.30;75.10
14049;DHT22;7099;53.922;10.728;2023-04-24T23:53:16;9.20;75.10
14049;DHT22;7099;53.922;10.728;2023-04-24T23:57:22;9.20;75.20
